Time;durP1;ratioP1;P1;durP2;ratioP2;P2;SDS_P1;SDS_P2;PMS_P1;PMS_P2;Temp;Humidity;BMP_temperature;BMP_pressure;BME280_temperature;BME280_humidity;BME280_pressure;Samples;Min_cycle;Max_cycle;Signal;HPM_P1;HPM_P2
2023/09/09 00:00:07;;;;;;;17.10;15.67;;;;;;;;;;2616262;54;20528;-80
2023/09/09 00:05:36;;;;;;;16.40;14.70;;;;;;;;;;2615091;54;20406;-80
2023/09/09 00:11:06;;;;;;;17.73;16.23;;;;;;;;;;2615807;54;20414;-79
2023/09/09 00:16:36;;;;;;;19.07;17.30;;;;;;;;;;2616207;39;20482;-78
2023/09/09 00:22:06;;;;;;;17.07;15.67;;;;;;;;;;2616239;54;20857;-78
2023/09/09 00:27:35;;;;;;;17.50;15.93;;;;;;;;;;2616388;54;20371;-78
2023/09/09 00:33:08;;;;;;;17.30;15.73;;;;;;;;;;2616236;54;20407;-78
2023/09/09 00:38:38;;;;;;;18.80;17.10;;;;;;;;;;2616536;54;20379;-78
2023/09/09 00:44:08;;;;;;;19.03;17.40;;;;;;;;;;2616206;54;20388;-79
2023/09/09 00:49:38;;;;;;;17.07;15.57;;;;;;;;;;2615329;54;20794;-77
2023/09/09 00:55:08;;;;;;;20.50;18.50;;;;;;;;;;2615964;54;20379;-78
2023/09/09 01:06:47;;;;;;;18.80;17.00;;;;;;;;;;2616833;54;21012;-78
2023/09/09 01:12:17;;;;;;;18.73;17.00;;;;;;;;;;2616869;54;20430;-77
2023/09/09 01:17:48;;;;;;;22.67;17.57;;;;;;;;;;2616057;54;20413;-79
2023/09/09 01:23:18;;;;;;;18.90;17.10;;;;;;;;;;2617322;54;20382;-80
2023/09/09 01:28:48;;;;;;;19.20;17.17;;;;;;;;;;2616675;54;20778;-80
2023/09/09 01:34:17;;;;;;;19.77;17.97;;;;;;;;;;2616118;54;20455;-80
2023/09/09 01:39:47;;;;;;;19.37;16.90;;;;;;;;;;2615994;54;20897;-79
2023/09/09 01:45:17;;;;;;;19.00;17.20;;;;;;;;;;2616796;39;20742;-79
2023/09/09 01:50:47;;;;;;;19.83;17.93;;;;;;;;;;2616202;54;20413;-78
2023/09/09 01:56:17;;;;;;;20.30;17.57;;;;;;;;;;2616164;54;20415;-79
2023/09/09 02:07:54;;;;;;;20.20;18.20;;;;;;;;;;2616341;54;20386;-77
2023/09/09 02:13:24;;;;;;;20.87;17.57;;;;;;;;;;2615641;54;20466;-78
2023/09/09 02:18:53;;;;;;;19.83;17.73;;;;;;;;;;2614837;54;20426;-78
2023/09/09 02:24:23;;;;;;;19.97;18.10;;;;;;;;;;2615073;54;20976;-79
2023/09/09 02:29:53;;;;;;;20.40;18.50;;;;;;;;;;2615411;54;20386;-77
2023/09/09 02:35:23;;;;;;;18.30;16.57;;;;;;;;;;2615299;54;20536;-78
2023/09/09 02:40:52;;;;;;;18.23;16.53;;;;;;;;;;2615068;46;20426;-78
2023/09/09 02:46:22;;;;;;;18.70;17.00;;;;;;;;;;2615103;54;20378;-78
2023/09/09 02:49:07;;;;;;;18.53;16.77;;;;;;;;;;2616079;54;21041;-78
2023/09/09 02:51:33;;;;;;;23.87;16.97;;;;;;;;;;2615502;39;20801;-78
2023/09/09 02:57:06;;;;;;;18.03;16.33;;;;;;;;;;2614745;54;20934;-79
2023/09/09 03:06:19;;;;;;;19.47;17.60;;;;;;;;;;2614879;54;20414;-77
2023/09/09 03:11:48;;;;;;;18.97;17.27;;;;;;;;;;2615845;39;20777;-78
2023/09/09 03:17:19;;;;;;;21.87;17.83;;;;;;;;;;2615775;54;20387;-78
2023/09/09 03:22:48;;;;;;;17.53;15.83;;;;;;;;;;2615150;54;21748;-80
2023/09/09 03:28:18;;;;;;;18.80;17.00;;;;;;;;;;2615376;54;21034;-79
2023/09/09 03:33:48;;;;;;;18.90;17.10;;;;;;;;;;2615222;54;21028;-79
2023/09/09 03:39:17;;;;;;;18.50;16.70;;;;;;;;;;2614921;54;20399;-75
2023/09/09 03:44:47;;;;;;;18.87;17.00;;;;;;;;;;2615657;54;20402;-77
2023/09/09 03:50:17;;;;;;;18.67;16.90;;;;;;;;;;2614908;54;20419;-78
2023/09/09 03:55:47;;;;;;;17.47;15.57;;;;;;;;;;2615430;54;20431;-77
2023/09/09 04:01:18;;;;;;;17.63;15.93;;;;;;;;;;2615810;54;20402;-77
2023/09/09 04:06:47;;;;;;;18.53;16.73;;;;;;;;;;2615466;54;20547;-77
2023/09/09 04:12:17;;;;;;;17.13;15.53;;;;;;;;;;2614591;54;20404;-76
2023/09/09 04:17:47;;;;;;;17.63;15.70;;;;;;;;;;2614643;54;20443;-76
2023/09/09 04:23:17;;;;;;;17.90;16.00;;;;;;;;;;2614564;54;20379;-76
2023/09/09 04:28:46;;;;;;;18.83;16.33;;;;;;;;;;2615642;54;20511;-76
2023/09/09 04:34:16;;;;;;;19.07;17.20;;;;;;;;;;2615352;54;20934;-76
2023/09/09 04:39:46;;;;;;;19.07;17.27;;;;;;;;;;2615469;54;20517;-76
2023/09/09 04:45:16;;;;;;;17.70;15.97;;;;;;;;;;2615513;54;20387;-75
2023/09/09 04:50:45;;;;;;;17.40;15.60;;;;;;;;;;2616456;39;20791;-76
2023/09/09 04:56:15;;;;;;;18.53;16.70;;;;;;;;;;2615301;54;20402;-77
2023/09/09 05:01:44;;;;;;;19.80;17.80;;;;;;;;;;2615705;39;20865;-75
2023/09/09 05:07:14;;;;;;;19.27;17.43;;;;;;;;;;2615800;54;20418;-77
2023/09/09 05:12:44;;;;;;;17.17;15.37;;;;;;;;;;2616043;54;20486;-78
2023/09/09 05:18:14;;;;;;;18.30;16.60;;;;;;;;;;2616062;54;20467;-77
2023/09/09 05:23:44;;;;;;;19.40;17.57;;;;;;;;;;2615221;54;20403;-78
2023/09/09 05:29:13;;;;;;;35.77;19.03;;;;;;;;;;2615285;54;20428;-79
2023/09/09 05:34:43;;;;;;;20.27;17.27;;;;;;;;;;2614378;54;20411;-78
2023/09/09 05:40:13;;;;;;;20.47;17.03;;;;;;;;;;2615377;54;20467;-75
2023/09/09 05:45:43;;;;;;;17.93;16.30;;;;;;;;;;2611240;54;20436;-76
2023/09/09 05:51:12;;;;;;;19.60;17.07;;;;;;;;;;2614243;54;20410;-76
2023/09/09 05:56:42;;;;;;;19.70;17.60;;;;;;;;;;2613193;54;20396;-76
2023/09/09 06:02:11;;;;;;;19.97;18.00;;;;;;;;;;2613077;54;20418;-78
2023/09/09 06:11:22;;;;;;;18.60;15.77;;;;;;;;;;2613892;54;20957;-77
2023/09/09 06:16:51;;;;;;;17.63;16.13;;;;;;;;;;2614789;54;20391;-76
2023/09/09 06:22:21;;;;;;;15.80;14.50;;;;;;;;;;2613795;54;20390;-79
2023/09/09 06:27:51;;;;;;;16.47;15.10;;;;;;;;;;2614892;54;20518;-80
2023/09/09 06:33:20;;;;;;;17.10;15.70;;;;;;;;;;2614948;54;20984;-79
2023/09/09 06:38:51;;;;;;;16.60;15.23;;;;;;;;;;2613109;54;20351;-79
2023/09/09 06:44:20;;;;;;;18.33;16.73;;;;;;;;;;2615458;54;20904;-80
2023/09/09 06:49:50;;;;;;;17.80;16.40;;;;;;;;;;2615935;54;20395;-78
2023/09/09 06:55:21;;;;;;;18.47;17.10;;;;;;;;;;2615600;54;20387;-77
2023/09/09 07:00:51;;;;;;;18.47;17.17;;;;;;;;;;2614127;54;20387;-77
2023/09/09 07:06:21;;;;;;;16.70;15.70;;;;;;;;;;2614580;39;20826;-78
2023/09/09 07:11:50;;;;;;;17.80;16.40;;;;;;;;;;2615201;46;20455;-76
2023/09/09 07:17:20;;;;;;;19.53;18.33;;;;;;;;;;2615386;54;20505;-78
2023/09/09 07:22:50;;;;;;;17.23;16.27;;;;;;;;;;2616436;54;20386;-77
2023/09/09 07:28:19;;;;;;;19.50;17.70;;;;;;;;;;2616168;54;20411;-79
2023/09/09 07:33:49;;;;;;;18.57;17.07;;;;;;;;;;2616134;54;21008;-79
2023/09/09 07:39:18;;;;;;;18.67;17.40;;;;;;;;;;2615648;54;20976;-79
2023/09/09 07:44:48;;;;;;;19.03;17.30;;;;;;;;;;2615730;54;20438;-79
2023/09/09 07:50:18;;;;;;;17.97;16.87;;;;;;;;;;2616196;54;20442;-78
2023/09/09 07:55:48;;;;;;;17.97;16.70;;;;;;;;;;2616016;39;20754;-79
2023/09/09 08:01:18;;;;;;;18.60;17.50;;;;;;;;;;2615858;54;20459;-79
2023/09/09 08:06:50;;;;;;;18.67;17.40;;;;;;;;;;2615453;54;20396;-79
2023/09/09 08:12:19;;;;;;;19.03;17.63;;;;;;;;;;2613180;54;20463;-80
2023/09/09 08:17:49;;;;;;;19.57;17.77;;;;;;;;;;2614920;54;20394;-79
2023/09/09 08:23:19;;;;;;;18.17;16.77;;;;;;;;;;2614029;54;20419;-79
2023/09/09 08:28:48;;;;;;;17.30;16.13;;;;;;;;;;2615823;54;20416;-78
2023/09/09 08:34:18;;;;;;;19.20;18.10;;;;;;;;;;2615985;54;20414;-78
2023/09/09 08:37:03;;;;;;;18.33;16.87;;;;;;;;;;2614145;47;20427;-79
2023/09/09 08:39:29;;;;;;;18.13;16.83;;;;;;;;;;2614541;54;20427;-78
2023/09/09 08:45:06;;;;;;;18.90;17.80;;;;;;;;;;2614827;54;20394;-79
2023/09/09 08:50:38;;;;;;;18.40;17.30;;;;;;;;;;2615766;54;20399;-79
2023/09/09 08:56:08;;;;;;;17.97;16.87;;;;;;;;;;2614553;54;20483;-79
2023/09/09 09:01:39;;;;;;;16.93;15.93;;;;;;;;;;2613834;54;20423;-79
2023/09/09 09:13:16;;;;;;;18.03;16.93;;;;;;;;;;2616124;31;20890;-79
2023/09/09 09:18:46;;;;;;;18.37;17.37;;;;;;;;;;2615801;54;20363;-79
2023/09/09 09:24:16;;;;;;;19.17;17.83;;;;;;;;;;2615720;39;20804;-79
2023/09/09 09:29:46;;;;;;;18.20;16.87;;;;;;;;;;2614366;54;20398;-79
2023/09/09 09:35:23;;;;;;;18.10;16.90;;;;;;;;;;2616110;39;20793;-79
2023/09/09 09:40:59;;;;;;;18.43;17.40;;;;;;;;;;2614053;54;21042;-79
2023/09/09 09:46:29;;;;;;;17.90;16.50;;;;;;;;;;2614697;54;20432;-80
2023/09/09 09:51:58;;;;;;;17.73;16.53;;;;;;;;;;2615905;46;20426;-79
2023/09/09 09:57:28;;;;;;;19.30;17.83;;;;;;;;;;2615640;54;20444;-78
2023/09/09 10:02:59;;;;;;;19.27;17.50;;;;;;;;;;2615144;54;20392;-79
2023/09/09 10:12:09;;;;;;;19.40;17.07;;;;;;;;;;2615377;54;20395;-78
2023/09/09 10:17:40;;;;;;;18.33;16.97;;;;;;;;;;2614836;46;20407;-81
2023/09/09 10:23:11;;;;;;;17.37;15.73;;;;;;;;;;2614793;54;20384;-78
2023/09/09 10:28:41;;;;;;;16.60;15.40;;;;;;;;;;2614027;54;20406;-78
2023/09/09 10:34:12;;;;;;;17.87;16.63;;;;;;;;;;2613457;54;20396;-79
2023/09/09 10:39:42;;;;;;;17.90;16.50;;;;;;;;;;2615870;39;20783;-79
2023/09/09 10:45:23;;;;;;;18.33;16.57;;;;;;;;;;2613790;54;20435;-79
2023/09/09 10:50:54;;;;;;;17.23;15.83;;;;;;;;;;2615216;54;20394;-79
2023/09/09 10:56:23;;;;;;;19.17;16.50;;;;;;;;;;2616264;54;20402;-79
2023/09/09 11:02:12;;;;;;;16.27;15.37;;;;;;;;;;2615448;54;21178;-78
2023/09/09 11:07:42;;;;;;;18.67;16.77;;;;;;;;;;2615164;54;20937;-78
2023/09/09 11:13:12;;;;;;;18.13;16.70;;;;;;;;;;2615218;54;20383;-78
2023/09/09 11:18:42;;;;;;;20.10;16.90;;;;;;;;;;2614706;54;20414;-78
2023/09/09 11:24:12;;;;;;;16.50;15.40;;;;;;;;;;2614076;54;20404;-78
2023/09/09 11:35:38;;;;;;;18.07;16.57;;;;;;;;;;2614366;54;20350;-78
2023/09/09 11:41:07;;;;;;;18.20;16.33;;;;;;;;;;2614943;54;20387;-78
2023/09/09 11:46:47;;;;;;;19.00;17.27;;;;;;;;;;2614198;54;20410;-77
2023/09/09 11:52:23;;;;;;;18.70;17.20;;;;;;;;;;2614171;54;20371;-76
2023/09/09 11:57:56;;;;;;;19.87;18.13;;;;;;;;;;2614645;54;20391;-78
2023/09/09 12:03:27;;;;;;;18.93;17.43;;;;;;;;;;2614931;54;20416;-77
2023/09/09 12:12:38;;;;;;;19.20;17.50;;;;;;;;;;2615258;54;20439;-78
2023/09/09 12:18:12;;;;;;;18.07;16.53;;;;;;;;;;2615001;54;20398;-79
2023/09/09 12:23:42;;;;;;;18.87;17.43;;;;;;;;;;2615608;54;20431;-78
2023/09/09 12:29:13;;;;;;;17.53;16.30;;;;;;;;;;2615546;39;20769;-79
2023/09/09 12:34:45;;;;;;;17.67;16.47;;;;;;;;;;2614959;54;20387;-78
2023/09/09 12:40:15;;;;;;;17.13;15.93;;;;;;;;;;2615620;54;20387;-78
2023/09/09 12:45:46;;;;;;;18.23;16.70;;;;;;;;;;2615406;54;20917;-79
2023/09/09 12:51:16;;;;;;;17.23;16.13;;;;;;;;;;2615769;39;20773;-79
2023/09/09 12:56:46;;;;;;;17.63;16.07;;;;;;;;;;2615568;54;20423;-78
2023/09/09 13:02:16;;;;;;;17.60;16.57;;;;;;;;;;2615532;54;20443;-79
2023/09/09 13:07:46;;;;;;;17.77;16.33;;;;;;;;;;2615515;39;20739;-79
2023/09/09 13:13:15;;;;;;;18.90;16.97;;;;;;;;;;2615379;54;20474;-79
2023/09/09 13:18:46;;;;;;;18.80;17.60;;;;;;;;;;2615323;54;20374;-79
2023/09/09 13:24:16;;;;;;;18.90;16.73;;;;;;;;;;2615517;54;20395;-78
2023/09/09 13:29:46;;;;;;;17.87;16.37;;;;;;;;;;2615986;54;20395;-78
2023/09/09 13:35:15;;;;;;;19.97;18.63;;;;;;;;;;2614809;54;20421;-77
2023/09/09 13:40:45;;;;;;;20.60;19.10;;;;;;;;;;2615008;54;20490;-78
2023/09/09 13:46:15;;;;;;;20.30;18.47;;;;;;;;;;2614773;54;20355;-77
2023/09/09 13:51:45;;;;;;;20.47;18.70;;;;;;;;;;2614789;54;20387;-78
2023/09/09 13:57:15;;;;;;;19.57;17.93;;;;;;;;;;2614549;39;20772;-78
2023/09/09 14:02:45;;;;;;;20.63;19.07;;;;;;;;;;2614658;54;20431;-78
2023/09/09 14:08:14;;;;;;;20.23;18.73;;;;;;;;;;2614446;54;20382;-78
2023/09/09 14:19:51;;;;;;;19.77;18.60;;;;;;;;;;2614913;54;20398;-78
2023/09/09 14:25:21;;;;;;;21.13;19.40;;;;;;;;;;2614544;54;20395;-78
2023/09/09 14:30:51;;;;;;;21.67;20.13;;;;;;;;;;2614628;54;20485;-78
2023/09/09 14:33:36;;;;;;;19.97;18.37;;;;;;;;;;2614146;47;20499;-77
2023/09/09 14:36:02;;;;;;;18.93;17.93;;;;;;;;;;2614191;54;20412;-78
2023/09/09 14:41:32;;;;;;;20.27;19.07;;;;;;;;;;2614671;54;20408;-78
2023/09/09 14:47:02;;;;;;;19.00;17.70;;;;;;;;;;2614914;39;20957;-77
2023/09/09 14:52:32;;;;;;;18.10;17.00;;;;;;;;;;2615161;39;20741;-79
2023/09/09 14:58:02;;;;;;;19.53;18.43;;;;;;;;;;2615426;54;20403;-78
2023/09/09 15:03:31;;;;;;;19.10;18.00;;;;;;;;;;2615560;39;20788;-77
2023/09/09 15:09:01;;;;;;;18.00;17.10;;;;;;;;;;2616096;39;21034;-78
2023/09/09 15:18:11;;;;;;;20.20;18.87;;;;;;;;;;2615197;47;20432;-79
2023/09/09 15:23:41;;;;;;;20.13;18.87;;;;;;;;;;2615161;54;20507;-77
2023/09/09 15:29:11;;;;;;;19.97;18.67;;;;;;;;;;2615727;54;20395;-78
2023/09/09 15:34:40;;;;;;;18.77;17.87;;;;;;;;;;2616181;39;20744;-78
2023/09/09 15:40:10;;;;;;;18.27;17.33;;;;;;;;;;2616512;54;20387;-78
2023/09/09 15:45:42;;;;;;;18.07;17.07;;;;;;;;;;2617821;54;20412;-78
2023/09/09 15:51:12;;;;;;;17.60;16.33;;;;;;;;;;2616724;54;20479;-79
2023/09/09 15:56:41;;;;;;;18.80;17.53;;;;;;;;;;2615906;54;20387;-79
2023/09/09 16:02:11;;;;;;;19.73;18.30;;;;;;;;;;2615892;39;20761;-79
2023/09/09 16:07:41;;;;;;;18.80;17.60;;;;;;;;;;2615063;54;20455;-79
2023/09/09 16:13:11;;;;;;;17.60;16.70;;;;;;;;;;2615554;54;20415;-79
2023/09/09 16:18:41;;;;;;;19.47;18.27;;;;;;;;;;2614521;54;20928;-78
2023/09/09 16:24:10;;;;;;;19.47;18.27;;;;;;;;;;2614517;54;20484;-79
2023/09/09 16:29:40;;;;;;;19.50;18.27;;;;;;;;;;2615476;54;20417;-77
2023/09/09 16:35:12;;;;;;;19.10;18.10;;;;;;;;;;2615268;54;20386;-77
2023/09/09 16:40:44;;;;;;;20.47;19.23;;;;;;;;;;2613942;54;20500;-79
2023/09/09 16:46:14;;;;;;;20.00;18.90;;;;;;;;;;2613183;54;20379;-79
2023/09/09 16:51:43;;;;;;;20.60;19.10;;;;;;;;;;2613844;54;21033;-78
2023/09/09 16:57:13;;;;;;;20.23;19.00;;;;;;;;;;2614737;54;20403;-78
2023/09/09 17:02:43;;;;;;;20.70;19.60;;;;;;;;;;2614002;54;20534;-78
2023/09/09 17:08:13;;;;;;;22.07;20.87;;;;;;;;;;2614120;54;20378;-79
2023/09/09 17:13:42;;;;;;;22.43;20.57;;;;;;;;;;2613792;54;20424;-78
2023/09/09 17:28:33;;;;;;;24.37;22.70;;;;;;;;;;2612915;54;20386;-79
2023/09/09 17:34:02;;;;;;;24.23;22.60;;;;;;;;;;2613742;54;20355;-78
2023/09/09 17:39:32;;;;;;;23.80;22.20;;;;;;;;;;2613527;54;20416;-79
2023/09/09 17:45:00;;;;;;;24.23;22.73;;;;;;;;;;2612843;54;20418;-78
2023/09/09 17:50:30;;;;;;;24.60;22.80;;;;;;;;;;2613651;54;20930;-79
2023/09/09 17:55:59;;;;;;;25.43;23.50;;;;;;;;;;2613931;54;20541;-78
2023/09/09 18:01:28;;;;;;;26.10;24.10;;;;;;;;;;2613648;54;20375;-77
2023/09/09 18:06:58;;;;;;;29.80;27.50;;;;;;;;;;2615126;54;20382;-79
2023/09/09 18:12:28;;;;;;;25.30;23.40;;;;;;;;;;2616188;54;21051;-79
2023/09/09 18:17:57;;;;;;;27.40;25.30;;;;;;;;;;2616331;54;20406;-81
2023/09/09 18:23:27;;;;;;;28.50;26.20;;;;;;;;;;2615968;54;20382;-81
2023/09/09 18:28:57;;;;;;;26.23;24.40;;;;;;;;;;2616315;54;20399;-80
2023/09/09 18:34:27;;;;;;;27.27;25.17;;;;;;;;;;2620480;54;20385;-77
2023/09/09 18:39:57;;;;;;;27.53;25.50;;;;;;;;;;2620212;54;20918;-78
2023/09/09 18:45:27;;;;;;;25.23;23.30;;;;;;;;;;2620885;39;20874;-78
2023/09/09 18:50:57;;;;;;;24.77;22.97;;;;;;;;;;2619251;54;20414;-80
2023/09/09 18:56:28;;;;;;;23.47;21.63;;;;;;;;;;2620434;54;20448;-79
2023/09/09 19:01:58;;;;;;;21.10;19.60;;;;;;;;;;2620296;54;20383;-81
2023/09/09 19:07:32;;;;;;;23.37;21.17;;;;;;;;;;2619138;54;20410;-76
2023/09/09 19:13:01;;;;;;;25.00;19.70;;;;;;;;;;2616061;54;20913;-78
2023/09/09 19:24:38;;;;;;;25.37;23.17;;;;;;;;;;2616074;54;20419;-78
2023/09/09 19:30:08;;;;;;;25.87;23.87;;;;;;;;;;2615254;54;20422;-77
2023/09/09 19:35:38;;;;;;;23.73;21.87;;;;;;;;;;2613715;54;20471;-75
2023/09/09 19:41:07;;;;;;;26.17;23.87;;;;;;;;;;2615421;46;20407;-77
2023/09/09 19:46:37;;;;;;;23.93;21.93;;;;;;;;;;2614455;54;20399;-77
2023/09/09 19:52:07;;;;;;;26.40;24.00;;;;;;;;;;2616023;54;20438;-75
2023/09/09 19:57:37;;;;;;;26.90;24.30;;;;;;;;;;2616536;54;20451;-76
2023/09/09 20:03:06;;;;;;;27.80;25.27;;;;;;;;;;2615185;54;20411;-76
2023/09/09 20:08:36;;;;;;;23.80;21.73;;;;;;;;;;2613982;54;20424;-76
2023/09/09 20:14:07;;;;;;;26.67;24.10;;;;;;;;;;2615277;39;20768;-76
2023/09/09 20:29:07;;;;;;;24.97;22.87;;;;;;;;;;2613968;54;20446;-76
2023/09/09 20:31:53;;;;;;;29.53;25.47;;;;;;;;;;2612789;39;20955;-76
2023/09/09 20:34:19;;;;;;;26.20;23.60;;;;;;;;;;2612343;54;20411;-76
2023/09/09 20:39:48;;;;;;;25.30;23.10;;;;;;;;;;2614705;54;20390;-78
2023/09/09 20:45:17;;;;;;;25.70;23.50;;;;;;;;;;2614361;39;20672;-76
2023/09/09 20:50:46;;;;;;;24.83;22.80;;;;;;;;;;2613489;54;20425;-82
2023/09/09 20:56:15;;;;;;;24.57;22.47;;;;;;;;;;2613182;54;20472;-80
2023/09/09 21:01:45;;;;;;;24.27;22.27;;;;;;;;;;2615158;54;20390;-80
2023/09/09 21:07:15;;;;;;;28.53;23.10;;;;;;;;;;2614498;39;20812;-79
2023/09/09 21:12:46;;;;;;;25.07;22.90;;;;;;;;;;2614796;54;20415;-81
2023/09/09 21:18:16;;;;;;;25.60;23.33;;;;;;;;;;2614890;54;20418;-81
2023/09/09 21:24:07;;;;;;;28.17;25.77;;;;;;;;;;2614858;54;21524;-80
2023/09/09 21:29:36;;;;;;;25.40;23.10;;;;;;;;;;2614160;54;20933;-80
2023/09/09 21:35:06;;;;;;;26.00;23.70;;;;;;;;;;2614601;54;20374;-80
2023/09/09 21:40:36;;;;;;;26.50;23.67;;;;;;;;;;2615237;54;20395;-80
2023/09/09 21:46:05;;;;;;;27.50;24.67;;;;;;;;;;2615581;54;20359;-80
2023/09/09 21:51:35;;;;;;;26.23;23.60;;;;;;;;;;2612217;54;20412;-80
2023/09/09 21:57:06;;;;;;;25.93;23.60;;;;;;;;;;2611650;54;20985;-83
2023/09/09 22:02:35;;;;;;;27.40;24.83;;;;;;;;;;2614060;39;20754;-77
2023/09/09 22:08:06;;;;;;;25.80;23.30;;;;;;;;;;2613857;54;20492;-77
2023/09/09 22:13:37;;;;;;;28.90;26.27;;;;;;;;;;2615080;54;20390;-78
2023/09/09 22:19:06;;;;;;;28.80;26.30;;;;;;;;;;2615840;54;20431;-77
2023/09/09 22:28:11;;;;;;;29.03;26.03;;;;;;;;;;2615341;39;20983;-77
2023/09/09 22:33:40;;;;;;;28.53;25.83;;;;;;;;;;2615131;54;20513;-76
2023/09/09 22:39:10;;;;;;;29.17;26.67;;;;;;;;;;2614304;54;20499;-76
2023/09/09 22:44:39;;;;;;;29.30;26.57;;;;;;;;;;2609821;54;20398;-77
2023/09/09 22:50:09;;;;;;;29.47;26.40;;;;;;;;;;2614735;54;20391;-76
2023/09/09 22:55:39;;;;;;;27.90;25.40;;;;;;;;;;2614263;54;20383;-78
2023/09/09 23:01:12;;;;;;;28.80;26.30;;;;;;;;;;2610904;54;20419;-78
2023/09/09 23:06:41;;;;;;;31.13;28.37;;;;;;;;;;2612932;54;20418;-78
2023/09/09 23:12:11;;;;;;;27.03;24.70;;;;;;;;;;2614765;39;20793;-77
2023/09/09 23:17:41;;;;;;;29.17;26.60;;;;;;;;;;2613720;54;20383;-77
2023/09/09 23:23:10;;;;;;;27.40;24.90;;;;;;;;;;2612000;54;20514;-77
2023/09/09 23:28:40;;;;;;;30.50;27.57;;;;;;;;;;2614707;54;20391;-77
2023/09/09 23:34:10;;;;;;;28.17;25.77;;;;;;;;;;2614210;54;20390;-76
2023/09/09 23:39:40;;;;;;;29.50;26.80;;;;;;;;;;2614088;54;20398;-76
2023/09/09 23:45:11;;;;;;;28.00;25.60;;;;;;;;;;2614496;54;20395;-78
2023/09/09 23:50:40;;;;;;;29.07;26.70;;;;;;;;;;2612309;54;20403;-76
2023/09/09 23:56:10;;;;;;;29.60;26.97;;;;;;;;;;2614421;39;20775;-76
